sensor_id;sensor_type;location;lat;lon;timestamp;P1;durP1;ratioP1;P2;durP2;ratioP2
58372;SDS011;44177;43.356;27.672;2023-07-31T00:00:23;2.63;;;2.20;;
58372;SDS011;44177;43.356;27.672;2023-07-31T00:02:48;2.92;;;2.08;;
58372;SDS011;44177;43.356;27.672;2023-07-31T00:05:14;4.18;;;2.42;;
58372;SDS011;44177;43.356;27.672;2023-07-31T00:07:39;3.30;;;2.30;;
58372;SDS011;44177;43.356;27.672;2023-07-31T00:10:05;3.55;;;2.20;;
58372;SDS011;44177;43.356;27.672;2023-07-31T00:12:31;2.35;;;2.03;;
58372;SDS011;44177;43.356;27.672;2023-07-31T00:14:56;2.03;;;1.90;;
58372;SDS011;44177;43.356;27.672;2023-07-31T00:17:22;2.63;;;2.17;;
58372;SDS011;44177;43.356;27.672;2023-07-31T00:19:47;5.00;;;2.30;;
58372;SDS011;44177;43.356;27.672;2023-07-31T00:22:15;3.10;;;2.17;;
58372;SDS011;44177;43.356;27.672;2023-07-31T00:24:41;2.88;;;2.20;;
58372;SDS011;44177;43.356;27.672;2023-07-31T00:27:07;2.90;;;2.33;;
58372;SDS011;44177;43.356;27.672;2023-07-31T00:29:32;2.97;;;2.67;;
58372;SDS011;44177;43.356;27.672;2023-07-31T00:31:58;2.72;;;2.40;;
58372;SDS011;44177;43.356;27.672;2023-07-31T00:34:23;2.42;;;2.22;;
58372;SDS011;44177;43.356;27.672;2023-07-31T00:36:49;3.83;;;2.58;;
58372;SDS011;44177;43.356;27.672;2023-07-31T00:39:14;3.97;;;2.22;;
58372;SDS011;44177;43.356;27.672;2023-07-31T00:41:40;2.60;;;2.33;;
58372;SDS011;44177;43.356;27.672;2023-07-31T00:44:05;3.08;;;2.17;;
58372;SDS011;44177;43.356;27.672;2023-07-31T00:46:31;3.80;;;2.30;;
58372;SDS011;44177;43.356;27.672;2023-07-31T00:48:56;3.08;;;2.10;;
58372;SDS011;44177;43.356;27.672;2023-07-31T00:51:22;2.90;;;2.33;;
58372;SDS011;44177;43.356;27.672;2023-07-31T00:53:48;3.50;;;2.88;;
58372;SDS011;44177;43.356;27.672;2023-07-31T00:56:14;3.47;;;2.85;;
58372;SDS011;44177;43.356;27.672;2023-07-31T00:58:40;3.83;;;2.80;;
58372;SDS011;44177;43.356;27.672;2023-07-31T01:01:06;3.67;;;2.88;;
58372;SDS011;44177;43.356;27.672;2023-07-31T01:03:31;4.40;;;2.97;;
58372;SDS011;44177;43.356;27.672;2023-07-31T01:11:19;7.85;;;4.07;;
58372;SDS011;44177;43.356;27.672;2023-07-31T01:13:51;10.45;;;5.50;;
58372;SDS011;44177;43.356;27.672;2023-07-31T01:16:16;12.32;;;7.18;;
58372;SDS011;44177;43.356;27.672;2023-07-31T01:18:42;13.07;;;8.23;;
58372;SDS011;44177;43.356;27.672;2023-07-31T01:21:30;15.82;;;8.20;;
58372;SDS011;44177;43.356;27.672;2023-07-31T01:27:03;23.30;;;11.05;;
58372;SDS011;44177;43.356;27.672;2023-07-31T01:32:04;21.45;;;11.55;;
58372;SDS011;44177;43.356;27.672;2023-07-31T01:34:31;21.23;;;11.40;;
58372;SDS011;44177;43.356;27.672;2023-07-31T01:36:57;20.15;;;10.90;;
58372;SDS011;44177;43.356;27.672;2023-07-31T01:39:26;22.77;;;10.63;;
58372;SDS011;44177;43.356;27.672;2023-07-31T01:41:51;20.00;;;11.45;;
58372;SDS011;44177;43.356;27.672;2023-07-31T01:44:17;19.45;;;10.90;;
58372;SDS011;44177;43.356;27.672;2023-07-31T01:46:42;18.83;;;10.90;;
58372;SDS011;44177;43.356;27.672;2023-07-31T01:49:08;15.70;;;9.95;;
58372;SDS011;44177;43.356;27.672;2023-07-31T01:51:34;19.00;;;10.30;;
58372;SDS011;44177;43.356;27.672;2023-07-31T01:54:00;19.85;;;9.52;;
58372;SDS011;44177;43.356;27.672;2023-07-31T01:56:27;14.80;;;9.00;;
58372;SDS011;44177;43.356;27.672;2023-07-31T01:58:52;12.90;;;7.82;;
58372;SDS011;44177;43.356;27.672;2023-07-31T02:01:18;11.63;;;6.35;;
58372;SDS011;44177;43.356;27.672;2023-07-31T02:03:43;11.98;;;6.72;;
58372;SDS011;44177;43.356;27.672;2023-07-31T02:06:09;8.73;;;6.32;;
58372;SDS011;44177;43.356;27.672;2023-07-31T02:08:34;6.32;;;3.95;;
58372;SDS011;44177;43.356;27.672;2023-07-31T02:11:00;5.85;;;3.58;;
58372;SDS011;44177;43.356;27.672;2023-07-31T02:13:25;6.20;;;3.60;;
58372;SDS011;44177;43.356;27.672;2023-07-31T02:15:51;5.75;;;3.53;;
58372;SDS011;44177;43.356;27.672;2023-07-31T02:18:16;7.03;;;4.30;;
58372;SDS011;44177;43.356;27.672;2023-07-31T02:20:42;4.57;;;3.55;;
58372;SDS011;44177;43.356;27.672;2023-07-31T02:23:08;3.95;;;3.10;;
58372;SDS011;44177;43.356;27.672;2023-07-31T02:25:33;3.35;;;2.70;;
58372;SDS011;44177;43.356;27.672;2023-07-31T02:27:59;2.78;;;2.40;;
58372;SDS011;44177;43.356;27.672;2023-07-31T02:30:24;3.70;;;2.22;;
58372;SDS011;44177;43.356;27.672;2023-07-31T02:32:50;2.88;;;2.22;;
58372;SDS011;44177;43.356;27.672;2023-07-31T02:35:16;2.47;;;2.25;;
58372;SDS011;44177;43.356;27.672;2023-07-31T02:37:41;2.83;;;2.13;;
58372;SDS011;44177;43.356;27.672;2023-07-31T02:40:08;3.10;;;1.73;;
58372;SDS011;44177;43.356;27.672;2023-07-31T02:42:33;1.95;;;1.60;;
58372;SDS011;44177;43.356;27.672;2023-07-31T02:44:59;5.10;;;1.98;;
58372;SDS011;44177;43.356;27.672;2023-07-31T02:47:24;1.95;;;1.65;;
58372;SDS011;44177;43.356;27.672;2023-07-31T02:49:50;2.22;;;1.83;;
58372;SDS011;44177;43.356;27.672;2023-07-31T02:52:15;4.22;;;1.55;;
58372;SDS011;44177;43.356;27.672;2023-07-31T02:54:41;2.10;;;1.73;;
58372;SDS011;44177;43.356;27.672;2023-07-31T02:57:07;2.47;;;1.95;;
58372;SDS011;44177;43.356;27.672;2023-07-31T02:59:32;2.78;;;1.45;;
58372;SDS011;44177;43.356;27.672;2023-07-31T03:01:58;3.05;;;1.38;;
58372;SDS011;44177;43.356;27.672;2023-07-31T03:04:23;3.50;;;1.85;;
58372;SDS011;44177;43.356;27.672;2023-07-31T03:06:49;1.80;;;1.30;;
58372;SDS011;44177;43.356;27.672;2023-07-31T03:09:14;1.75;;;1.60;;
58372;SDS011;44177;43.356;27.672;2023-07-31T03:11:40;1.88;;;1.60;;
58372;SDS011;44177;43.356;27.672;2023-07-31T03:14:05;1.63;;;1.52;;
58372;SDS011;44177;43.356;27.672;2023-07-31T03:16:31;1.80;;;1.50;;
58372;SDS011;44177;43.356;27.672;2023-07-31T03:18:56;2.35;;;1.80;;
58372;SDS011;44177;43.356;27.672;2023-07-31T03:21:23;2.30;;;1.63;;
58372;SDS011;44177;43.356;27.672;2023-07-31T03:23:48;5.90;;;1.80;;
58372;SDS011;44177;43.356;27.672;2023-07-31T03:26:14;1.80;;;1.55;;
58372;SDS011;44177;43.356;27.672;2023-07-31T03:28:39;1.55;;;1.40;;
58372;SDS011;44177;43.356;27.672;2023-07-31T03:31:05;2.30;;;1.73;;
58372;SDS011;44177;43.356;27.672;2023-07-31T03:33:30;2.17;;;1.60;;
58372;SDS011;44177;43.356;27.672;2023-07-31T03:35:56;3.60;;;1.73;;
58372;SDS011;44177;43.356;27.672;2023-07-31T03:38:22;2.03;;;1.80;;
58372;SDS011;44177;43.356;27.672;2023-07-31T03:40:47;1.80;;;1.70;;
58372;SDS011;44177;43.356;27.672;2023-07-31T03:43:13;2.42;;;1.73;;
58372;SDS011;44177;43.356;27.672;2023-07-31T03:45:40;2.83;;;1.55;;
58372;SDS011;44177;43.356;27.672;2023-07-31T03:48:06;2.33;;;1.95;;
58372;SDS011;44177;43.356;27.672;2023-07-31T03:50:32;1.95;;;1.80;;
58372;SDS011;44177;43.356;27.672;2023-07-31T03:52:58;2.03;;;1.67;;
58372;SDS011;44177;43.356;27.672;2023-07-31T03:55:24;1.95;;;1.70;;
58372;SDS011;44177;43.356;27.672;2023-07-31T03:57:49;2.10;;;1.88;;
58372;SDS011;44177;43.356;27.672;2023-07-31T04:00:15;2.75;;;1.70;;
58372;SDS011;44177;43.356;27.672;2023-07-31T04:02:40;2.45;;;1.77;;
58372;SDS011;44177;43.356;27.672;2023-07-31T04:05:06;3.13;;;1.90;;
58372;SDS011;44177;43.356;27.672;2023-07-31T04:07:32;2.10;;;1.90;;
58372;SDS011;44177;43.356;27.672;2023-07-31T04:09:58;2.13;;;1.90;;
58372;SDS011;44177;43.356;27.672;2023-07-31T04:12:25;2.78;;;1.83;;
58372;SDS011;44177;43.356;27.672;2023-07-31T04:14:50;2.50;;;1.80;;
58372;SDS011;44177;43.356;27.672;2023-07-31T04:17:17;4.72;;;1.85;;
58372;SDS011;44177;43.356;27.672;2023-07-31T04:19:43;1.90;;;1.70;;
58372;SDS011;44177;43.356;27.672;2023-07-31T04:22:08;3.83;;;2.00;;
58372;SDS011;44177;43.356;27.672;2023-07-31T04:24:34;2.22;;;2.03;;
58372;SDS011;44177;43.356;27.672;2023-07-31T04:26:59;2.20;;;2.00;;
58372;SDS011;44177;43.356;27.672;2023-07-31T04:29:25;6.05;;;2.60;;
58372;SDS011;44177;43.356;27.672;2023-07-31T04:31:50;2.38;;;1.60;;
58372;SDS011;44177;43.356;27.672;2023-07-31T04:34:16;2.25;;;2.05;;
58372;SDS011;44177;43.356;27.672;2023-07-31T04:36:41;2.42;;;1.90;;
58372;SDS011;44177;43.356;27.672;2023-07-31T04:39:07;10.52;;;2.30;;
58372;SDS011;44177;43.356;27.672;2023-07-31T04:41:33;3.10;;;2.00;;
58372;SDS011;44177;43.356;27.672;2023-07-31T04:43:58;2.78;;;1.90;;
58372;SDS011;44177;43.356;27.672;2023-07-31T04:46:24;2.40;;;2.20;;
58372;SDS011;44177;43.356;27.672;2023-07-31T04:48:49;4.43;;;2.33;;
58372;SDS011;44177;43.356;27.672;2023-07-31T04:51:15;3.33;;;2.60;;
58372;SDS011;44177;43.356;27.672;2023-07-31T04:53:40;3.08;;;2.75;;
58372;SDS011;44177;43.356;27.672;2023-07-31T04:56:06;5.15;;;3.10;;
58372;SDS011;44177;43.356;27.672;2023-07-31T04:58:31;4.32;;;3.08;;
58372;SDS011;44177;43.356;27.672;2023-07-31T05:00:57;3.75;;;2.83;;
58372;SDS011;44177;43.356;27.672;2023-07-31T05:03:22;5.00;;;3.00;;
58372;SDS011;44177;43.356;27.672;2023-07-31T05:05:48;3.80;;;3.03;;
58372;SDS011;44177;43.356;27.672;2023-07-31T05:08:13;4.15;;;2.92;;
58372;SDS011;44177;43.356;27.672;2023-07-31T05:10:39;6.03;;;2.95;;
58372;SDS011;44177;43.356;27.672;2023-07-31T05:13:04;4.50;;;3.20;;
58372;SDS011;44177;43.356;27.672;2023-07-31T05:15:30;3.63;;;3.17;;
58372;SDS011;44177;43.356;27.672;2023-07-31T05:17:56;5.10;;;3.10;;
58372;SDS011;44177;43.356;27.672;2023-07-31T05:20:21;3.25;;;2.95;;
58372;SDS011;44177;43.356;27.672;2023-07-31T05:22:47;3.65;;;3.35;;
58372;SDS011;44177;43.356;27.672;2023-07-31T05:25:12;3.22;;;2.83;;
58372;SDS011;44177;43.356;27.672;2023-07-31T05:27:38;3.15;;;2.80;;
58372;SDS011;44177;43.356;27.672;2023-07-31T05:30:04;3.50;;;3.08;;
58372;SDS011;44177;43.356;27.672;2023-07-31T05:32:30;6.55;;;3.35;;
58372;SDS011;44177;43.356;27.672;2023-07-31T05:34:56;3.58;;;3.20;;
58372;SDS011;44177;43.356;27.672;2023-07-31T05:37:21;3.17;;;2.88;;
58372;SDS011;44177;43.356;27.672;2023-07-31T05:39:47;3.28;;;2.95;;
58372;SDS011;44177;43.356;27.672;2023-07-31T05:42:13;3.63;;;3.17;;
58372;SDS011;44177;43.356;27.672;2023-07-31T05:44:38;3.08;;;2.78;;
58372;SDS011;44177;43.356;27.672;2023-07-31T05:47:04;2.83;;;2.63;;
58372;SDS011;44177;43.356;27.672;2023-07-31T05:49:30;3.08;;;2.78;;
58372;SDS011;44177;43.356;27.672;2023-07-31T05:51:55;3.10;;;2.80;;
58372;SDS011;44177;43.356;27.672;2023-07-31T05:54:21;7.32;;;2.83;;
58372;SDS011;44177;43.356;27.672;2023-07-31T05:56:47;3.10;;;2.80;;
58372;SDS011;44177;43.356;27.672;2023-07-31T05:59:12;3.55;;;3.20;;
58372;SDS011;44177;43.356;27.672;2023-07-31T06:01:38;4.15;;;2.88;;
58372;SDS011;44177;43.356;27.672;2023-07-31T06:04:04;3.30;;;3.00;;
58372;SDS011;44177;43.356;27.672;2023-07-31T06:06:30;3.55;;;2.88;;
58372;SDS011;44177;43.356;27.672;2023-07-31T06:08:56;3.67;;;3.10;;
58372;SDS011;44177;43.356;27.672;2023-07-31T06:11:21;3.80;;;2.90;;
58372;SDS011;44177;43.356;27.672;2023-07-31T06:13:47;4.47;;;3.45;;
58372;SDS011;44177;43.356;27.672;2023-07-31T06:16:14;4.40;;;3.38;;
58372;SDS011;44177;43.356;27.672;2023-07-31T06:18:40;3.67;;;3.28;;
58372;SDS011;44177;43.356;27.672;2023-07-31T06:21:07;4.00;;;3.47;;
58372;SDS011;44177;43.356;27.672;2023-07-31T06:23:32;5.63;;;3.47;;
58372;SDS011;44177;43.356;27.672;2023-07-31T06:25:58;4.03;;;3.67;;
58372;SDS011;44177;43.356;27.672;2023-07-31T06:28:30;4.00;;;3.60;;
58372;SDS011;44177;43.356;27.672;2023-07-31T06:31:00;4.82;;;3.63;;
58372;SDS011;44177;43.356;27.672;2023-07-31T06:33:26;4.60;;;3.90;;
58372;SDS011;44177;43.356;27.672;2023-07-31T06:35:52;4.25;;;3.63;;
58372;SDS011;44177;43.356;27.672;2023-07-31T06:38:21;3.50;;;3.20;;
58372;SDS011;44177;43.356;27.672;2023-07-31T06:40:49;3.53;;;3.22;;
58372;SDS011;44177;43.356;27.672;2023-07-31T06:43:14;3.30;;;3.00;;
58372;SDS011;44177;43.356;27.672;2023-07-31T06:45:40;3.28;;;2.67;;
58372;SDS011;44177;43.356;27.672;2023-07-31T06:48:05;3.10;;;2.80;;
58372;SDS011;44177;43.356;27.672;2023-07-31T06:50:31;4.13;;;3.00;;
58372;SDS011;44177;43.356;27.672;2023-07-31T06:52:57;4.10;;;2.53;;
58372;SDS011;44177;43.356;27.672;2023-07-31T06:55:23;3.20;;;2.88;;
58372;SDS011;44177;43.356;27.672;2023-07-31T06:57:50;3.03;;;2.58;;
58372;SDS011;44177;43.356;27.672;2023-07-31T07:00:17;2.22;;;2.03;;
58372;SDS011;44177;43.356;27.672;2023-07-31T07:02:43;2.72;;;2.45;;
58372;SDS011;44177;43.356;27.672;2023-07-31T07:05:09;2.72;;;2.50;;
58372;SDS011;44177;43.356;27.672;2023-07-31T07:07:35;3.40;;;2.42;;
58372;SDS011;44177;43.356;27.672;2023-07-31T07:10:01;3.65;;;2.33;;
58372;SDS011;44177;43.356;27.672;2023-07-31T07:12:29;2.45;;;2.25;;
58372;SDS011;44177;43.356;27.672;2023-07-31T07:14:55;3.63;;;2.90;;
58372;SDS011;44177;43.356;27.672;2023-07-31T07:17:22;2.70;;;2.50;;
58372;SDS011;44177;43.356;27.672;2023-07-31T07:19:48;2.80;;;2.60;;
58372;SDS011;44177;43.356;27.672;2023-07-31T07:22:13;2.80;;;2.60;;
58372;SDS011;44177;43.356;27.672;2023-07-31T07:24:39;2.95;;;2.70;;
58372;SDS011;44177;43.356;27.672;2023-07-31T07:27:05;2.83;;;2.63;;
58372;SDS011;44177;43.356;27.672;2023-07-31T07:29:31;3.10;;;2.80;;
58372;SDS011;44177;43.356;27.672;2023-07-31T07:31:56;2.53;;;2.13;;
58372;SDS011;44177;43.356;27.672;2023-07-31T07:34:22;2.25;;;2.05;;
58372;SDS011;44177;43.356;27.672;2023-07-31T07:36:49;1.83;;;1.73;;
58372;SDS011;44177;43.356;27.672;2023-07-31T07:39:15;1.67;;;1.58;;
58372;SDS011;44177;43.356;27.672;2023-07-31T07:41:40;1.70;;;1.60;;
58372;SDS011;44177;43.356;27.672;2023-07-31T07:44:06;1.92;;;1.77;;
58372;SDS011;44177;43.356;27.672;2023-07-31T07:46:31;3.15;;;2.15;;
58372;SDS011;44177;43.356;27.672;2023-07-31T07:48:57;1.98;;;1.63;;
58372;SDS011;44177;43.356;27.672;2023-07-31T07:51:22;2.65;;;1.40;;
58372;SDS011;44177;43.356;27.672;2023-07-31T07:53:48;2.05;;;1.83;;
58372;SDS011;44177;43.356;27.672;2023-07-31T07:56:14;1.67;;;1.58;;
58372;SDS011;44177;43.356;27.672;2023-07-31T07:58:39;1.88;;;1.70;;
58372;SDS011;44177;43.356;27.672;2023-07-31T08:01:05;1.45;;;1.35;;
58372;SDS011;44177;43.356;27.672;2023-07-31T08:03:31;1.77;;;1.38;;
58372;SDS011;44177;43.356;27.672;2023-07-31T08:06:00;1.90;;;1.70;;
58372;SDS011;44177;43.356;27.672;2023-07-31T08:08:26;1.85;;;1.70;;
58372;SDS011;44177;43.356;27.672;2023-07-31T08:10:53;2.67;;;1.73;;
58372;SDS011;44177;43.356;27.672;2023-07-31T08:13:18;1.58;;;1.48;;
58372;SDS011;44177;43.356;27.672;2023-07-31T08:15:44;1.77;;;1.67;;
58372;SDS011;44177;43.356;27.672;2023-07-31T08:18:10;1.60;;;1.50;;
58372;SDS011;44177;43.356;27.672;2023-07-31T08:20:36;2.50;;;1.55;;
58372;SDS011;44177;43.356;27.672;2023-07-31T08:23:02;1.60;;;1.50;;
58372;SDS011;44177;43.356;27.672;2023-07-31T08:25:28;3.17;;;1.60;;
58372;SDS011;44177;43.356;27.672;2023-07-31T08:27:54;2.08;;;1.88;;
58372;SDS011;44177;43.356;27.672;2023-07-31T08:30:20;1.90;;;1.80;;
58372;SDS011;44177;43.356;27.672;2023-07-31T08:32:46;1.48;;;1.38;;
58372;SDS011;44177;43.356;27.672;2023-07-31T08:35:12;1.85;;;1.40;;
58372;SDS011;44177;43.356;27.672;2023-07-31T08:37:38;1.60;;;1.40;;
58372;SDS011;44177;43.356;27.672;2023-07-31T08:40:04;1.52;;;1.42;;
58372;SDS011;44177;43.356;27.672;2023-07-31T08:42:34;1.38;;;1.20;;
58372;SDS011;44177;43.356;27.672;2023-07-31T08:45:09;1.88;;;1.40;;
58372;SDS011;44177;43.356;27.672;2023-07-31T08:47:36;1.70;;;1.17;;
58372;SDS011;44177;43.356;27.672;2023-07-31T08:50:03;1.45;;;1.27;;
58372;SDS011;44177;43.356;27.672;2023-07-31T08:52:29;1.17;;;1.08;;
58372;SDS011;44177;43.356;27.672;2023-07-31T08:54:57;1.40;;;1.10;;
58372;SDS011;44177;43.356;27.672;2023-07-31T08:57:23;1.40;;;1.30;;
58372;SDS011;44177;43.356;27.672;2023-07-31T08:59:49;1.40;;;1.25;;
58372;SDS011;44177;43.356;27.672;2023-07-31T09:02:15;2.22;;;1.55;;
58372;SDS011;44177;43.356;27.672;2023-07-31T09:04:44;2.35;;;1.42;;
58372;SDS011;44177;43.356;27.672;2023-07-31T09:07:09;1.65;;;1.40;;
58372;SDS011;44177;43.356;27.672;2023-07-31T09:09:38;1.50;;;1.40;;
58372;SDS011;44177;43.356;27.672;2023-07-31T09:12:04;1.55;;;1.45;;
58372;SDS011;44177;43.356;27.672;2023-07-31T09:14:31;1.45;;;1.30;;
58372;SDS011;44177;43.356;27.672;2023-07-31T09:16:57;1.58;;;1.40;;
58372;SDS011;44177;43.356;27.672;2023-07-31T09:19:29;1.40;;;1.30;;
58372;SDS011;44177;43.356;27.672;2023-07-31T09:21:58;1.75;;;1.40;;
58372;SDS011;44177;43.356;27.672;2023-07-31T09:24:25;1.52;;;1.42;;
58372;SDS011;44177;43.356;27.672;2023-07-31T09:26:53;1.55;;;1.45;;
58372;SDS011;44177;43.356;27.672;2023-07-31T09:29:20;2.72;;;1.77;;
58372;SDS011;44177;43.356;27.672;2023-07-31T09:31:46;1.80;;;1.65;;
58372;SDS011;44177;43.356;27.672;2023-07-31T09:34:13;2.08;;;1.60;;
58372;SDS011;44177;43.356;27.672;2023-07-31T09:36:42;1.80;;;1.70;;
58372;SDS011;44177;43.356;27.672;2023-07-31T09:39:09;1.60;;;1.50;;
58372;SDS011;44177;43.356;27.672;2023-07-31T09:41:36;2.28;;;1.75;;
58372;SDS011;44177;43.356;27.672;2023-07-31T09:44:03;1.70;;;1.60;;
58372;SDS011;44177;43.356;27.672;2023-07-31T09:46:29;1.88;;;1.73;;
58372;SDS011;44177;43.356;27.672;2023-07-31T09:51:37;2.08;;;1.80;;
58372;SDS011;44177;43.356;27.672;2023-07-31T09:54:05;2.35;;;2.15;;
58372;SDS011;44177;43.356;27.672;2023-07-31T09:56:36;1.80;;;1.70;;
58372;SDS011;44177;43.356;27.672;2023-07-31T09:59:03;1.90;;;1.80;;
58372;SDS011;44177;43.356;27.672;2023-07-31T10:01:30;2.33;;;2.13;;
58372;SDS011;44177;43.356;27.672;2023-07-31T10:03:56;2.13;;;1.60;;
58372;SDS011;44177;43.356;27.672;2023-07-31T10:06:23;1.83;;;1.65;;
58372;SDS011;44177;43.356;27.672;2023-07-31T10:08:50;1.88;;;1.77;;
58372;SDS011;44177;43.356;27.672;2023-07-31T10:11:18;2.03;;;1.85;;
58372;SDS011;44177;43.356;27.672;2023-07-31T10:13:45;2.42;;;2.22;;
58372;SDS011;44177;43.356;27.672;2023-07-31T10:16:11;2.90;;;1.90;;
58372;SDS011;44177;43.356;27.672;2023-07-31T10:18:37;2.10;;;1.90;;
58372;SDS011;44177;43.356;27.672;2023-07-31T10:21:05;4.15;;;2.00;;
58372;SDS011;44177;43.356;27.672;2023-07-31T10:23:31;2.33;;;2.00;;
58372;SDS011;44177;43.356;27.672;2023-07-31T10:25:59;2.72;;;2.20;;
58372;SDS011;44177;43.356;27.672;2023-07-31T10:28:27;2.75;;;2.28;;
58372;SDS011;44177;43.356;27.672;2023-07-31T10:30:54;2.30;;;2.10;;
58372;SDS011;44177;43.356;27.672;2023-07-31T10:33:21;2.38;;;2.05;;
58372;SDS011;44177;43.356;27.672;2023-07-31T10:35:47;2.72;;;2.45;;
58372;SDS011;44177;43.356;27.672;2023-07-31T10:38:13;2.85;;;2.50;;
58372;SDS011;44177;43.356;27.672;2023-07-31T10:40:39;3.05;;;2.20;;
58372;SDS011;44177;43.356;27.672;2023-07-31T10:43:06;2.92;;;2.63;;
58372;SDS011;44177;43.356;27.672;2023-07-31T10:45:37;2.85;;;2.65;;
58372;SDS011;44177;43.356;27.672;2023-07-31T10:48:04;3.08;;;2.70;;
58372;SDS011;44177;43.356;27.672;2023-07-31T10:50:50;2.88;;;2.63;;
58372;SDS011;44177;43.356;27.672;2023-07-31T10:53:24;2.47;;;2.28;;
58372;SDS011;44177;43.356;27.672;2023-07-31T10:55:51;2.72;;;2.53;;
58372;SDS011;44177;43.356;27.672;2023-07-31T10:58:18;2.92;;;2.58;;
58372;SDS011;44177;43.356;27.672;2023-07-31T11:00:44;3.88;;;2.72;;
58372;SDS011;44177;43.356;27.672;2023-07-31T11:03:11;4.93;;;2.80;;
58372;SDS011;44177;43.356;27.672;2023-07-31T11:08:15;2.72;;;2.53;;
58372;SDS011;44177;43.356;27.672;2023-07-31T11:10:45;3.55;;;3.00;;
58372;SDS011;44177;43.356;27.672;2023-07-31T11:13:12;3.55;;;2.75;;
58372;SDS011;44177;43.356;27.672;2023-07-31T11:15:38;3.67;;;2.55;;
58372;SDS011;44177;43.356;27.672;2023-07-31T11:18:04;3.13;;;2.63;;
58372;SDS011;44177;43.356;27.672;2023-07-31T11:20:31;3.55;;;3.03;;
58372;SDS011;44177;43.356;27.672;2023-07-31T11:22:59;4.25;;;3.15;;
58372;SDS011;44177;43.356;27.672;2023-07-31T11:25:28;4.55;;;3.10;;
58372;SDS011;44177;43.356;27.672;2023-07-31T11:27:54;3.25;;;2.95;;
58372;SDS011;44177;43.356;27.672;2023-07-31T11:30:23;4.45;;;2.88;;
58372;SDS011;44177;43.356;27.672;2023-07-31T11:32:49;3.25;;;2.90;;
58372;SDS011;44177;43.356;27.672;2023-07-31T11:35:16;4.45;;;3.17;;
58372;SDS011;44177;43.356;27.672;2023-07-31T11:37:42;4.50;;;3.22;;
58372;SDS011;44177;43.356;27.672;2023-07-31T11:40:08;3.92;;;3.40;;
58372;SDS011;44177;43.356;27.672;2023-07-31T11:42:34;3.95;;;3.58;;
58372;SDS011;44177;43.356;27.672;2023-07-31T11:45:04;4.40;;;3.80;;
58372;SDS011;44177;43.356;27.672;2023-07-31T11:47:34;4.43;;;3.38;;
58372;SDS011;44177;43.356;27.672;2023-07-31T11:50:02;4.53;;;3.97;;
58372;SDS011;44177;43.356;27.672;2023-07-31T11:52:34;4.25;;;3.85;;
58372;SDS011;44177;43.356;27.672;2023-07-31T11:55:06;5.03;;;3.88;;
58372;SDS011;44177;43.356;27.672;2023-07-31T11:57:34;4.78;;;4.03;;
58372;SDS011;44177;43.356;27.672;2023-07-31T12:00:02;4.68;;;4.03;;
58372;SDS011;44177;43.356;27.672;2023-07-31T12:02:29;4.95;;;4.30;;
58372;SDS011;44177;43.356;27.672;2023-07-31T12:04:55;4.45;;;4.05;;
58372;SDS011;44177;43.356;27.672;2023-07-31T12:07:20;4.45;;;4.05;;
58372;SDS011;44177;43.356;27.672;2023-07-31T12:09:53;4.95;;;4.45;;
58372;SDS011;44177;43.356;27.672;2023-07-31T12:12:23;5.78;;;4.75;;
58372;SDS011;44177;43.356;27.672;2023-07-31T12:14:50;5.85;;;4.45;;
58372;SDS011;44177;43.356;27.672;2023-07-31T12:17:17;5.13;;;4.63;;
58372;SDS011;44177;43.356;27.672;2023-07-31T12:19:45;4.93;;;4.30;;
58372;SDS011;44177;43.356;27.672;2023-07-31T12:22:14;5.10;;;4.60;;
58372;SDS011;44177;43.356;27.672;2023-07-31T12:24:41;4.57;;;4.18;;
58372;SDS011;44177;43.356;27.672;2023-07-31T12:27:13;5.43;;;4.93;;
58372;SDS011;44177;43.356;27.672;2023-07-31T12:29:41;5.72;;;4.95;;
58372;SDS011;44177;43.356;27.672;2023-07-31T12:32:23;6.03;;;4.93;;
58372;SDS011;44177;43.356;27.672;2023-07-31T12:34:50;7.00;;;5.18;;
58372;SDS011;44177;43.356;27.672;2023-07-31T12:37:16;6.22;;;5.03;;
58372;SDS011;44177;43.356;27.672;2023-07-31T12:39:42;6.65;;;5.07;;
58372;SDS011;44177;43.356;27.672;2023-07-31T12:42:08;5.57;;;4.82;;
58372;SDS011;44177;43.356;27.672;2023-07-31T12:44:33;6.63;;;5.35;;
58372;SDS011;44177;43.356;27.672;2023-07-31T12:46:59;5.75;;;5.15;;
58372;SDS011;44177;43.356;27.672;2023-07-31T12:49:25;6.35;;;5.13;;
58372;SDS011;44177;43.356;27.672;2023-07-31T12:51:50;5.90;;;5.20;;
58372;SDS011;44177;43.356;27.672;2023-07-31T12:54:16;5.82;;;5.10;;
58372;SDS011;44177;43.356;27.672;2023-07-31T12:56:41;5.88;;;5.05;;
58372;SDS011;44177;43.356;27.672;2023-07-31T12:59:07;7.72;;;5.47;;
58372;SDS011;44177;43.356;27.672;2023-07-31T13:01:33;6.07;;;4.82;;
58372;SDS011;44177;43.356;27.672;2023-07-31T13:03:59;6.55;;;5.53;;
58372;SDS011;44177;43.356;27.672;2023-07-31T13:06:25;5.60;;;4.97;;
58372;SDS011;44177;43.356;27.672;2023-07-31T13:08:51;7.05;;;5.50;;
58372;SDS011;44177;43.356;27.672;2023-07-31T13:11:17;6.13;;;5.13;;
58372;SDS011;44177;43.356;27.672;2023-07-31T13:13:42;6.00;;;4.45;;
58372;SDS011;44177;43.356;27.672;2023-07-31T13:16:08;4.93;;;4.30;;
58372;SDS011;44177;43.356;27.672;2023-07-31T13:18:34;5.30;;;4.80;;
58372;SDS011;44177;43.356;27.672;2023-07-31T13:21:00;4.82;;;4.20;;
58372;SDS011;44177;43.356;27.672;2023-07-31T13:23:25;6.22;;;4.72;;
58372;SDS011;44177;43.356;27.672;2023-07-31T13:25:51;4.85;;;4.35;;
58372;SDS011;44177;43.356;27.672;2023-07-31T13:28:16;4.97;;;4.10;;
58372;SDS011;44177;43.356;27.672;2023-07-31T13:30:42;4.50;;;4.00;;
58372;SDS011;44177;43.356;27.672;2023-07-31T13:33:07;6.93;;;4.43;;
58372;SDS011;44177;43.356;27.672;2023-07-31T13:35:33;5.35;;;4.00;;
58372;SDS011;44177;43.356;27.672;2023-07-31T13:37:59;4.30;;;3.90;;
58372;SDS011;44177;43.356;27.672;2023-07-31T13:40:24;4.40;;;4.00;;
58372;SDS011;44177;43.356;27.672;2023-07-31T13:42:50;4.32;;;3.92;;
58372;SDS011;44177;43.356;27.672;2023-07-31T13:45:15;4.75;;;3.88;;
58372;SDS011;44177;43.356;27.672;2023-07-31T13:47:41;5.72;;;3.92;;
58372;SDS011;44177;43.356;27.672;2023-07-31T13:50:07;4.47;;;4.05;;
58372;SDS011;44177;43.356;27.672;2023-07-31T13:52:33;4.80;;;4.40;;
58372;SDS011;44177;43.356;27.672;2023-07-31T13:54:58;4.78;;;4.18;;
58372;SDS011;44177;43.356;27.672;2023-07-31T13:57:24;5.28;;;3.92;;
58372;SDS011;44177;43.356;27.672;2023-07-31T13:59:50;5.22;;;4.55;;
58372;SDS011;44177;43.356;27.672;2023-07-31T14:02:15;5.93;;;4.47;;
58372;SDS011;44177;43.356;27.672;2023-07-31T14:04:41;6.13;;;4.78;;
58372;SDS011;44177;43.356;27.672;2023-07-31T14:07:07;5.00;;;4.50;;
58372;SDS011;44177;43.356;27.672;2023-07-31T14:09:32;5.10;;;4.57;;
58372;SDS011;44177;43.356;27.672;2023-07-31T14:11:58;5.38;;;4.47;;
58372;SDS011;44177;43.356;27.672;2023-07-31T14:14:24;4.65;;;4.25;;
58372;SDS011;44177;43.356;27.672;2023-07-31T14:16:49;4.93;;;4.40;;
58372;SDS011;44177;43.356;27.672;2023-07-31T14:19:15;4.70;;;4.30;;
58372;SDS011;44177;43.356;27.672;2023-07-31T14:21:40;5.03;;;3.88;;
58372;SDS011;44177;43.356;27.672;2023-07-31T14:24:06;4.20;;;3.78;;
58372;SDS011;44177;43.356;27.672;2023-07-31T14:26:31;4.70;;;4.07;;
58372;SDS011;44177;43.356;27.672;2023-07-31T14:28:57;4.20;;;3.72;;
58372;SDS011;44177;43.356;27.672;2023-07-31T14:31:23;4.70;;;4.20;;
58372;SDS011;44177;43.356;27.672;2023-07-31T14:33:48;3.70;;;3.33;;
58372;SDS011;44177;43.356;27.672;2023-07-31T14:36:15;4.28;;;3.88;;
58372;SDS011;44177;43.356;27.672;2023-07-31T14:38:40;4.22;;;3.83;;
58372;SDS011;44177;43.356;27.672;2023-07-31T14:41:06;4.32;;;3.75;;
58372;SDS011;44177;43.356;27.672;2023-07-31T14:43:31;4.90;;;4.00;;